East Keating, Pennsylvania
Current Conditions -  °F | °C
As of 8:54 AM on Saturday 22 Nov 2014 (Local Time) from KFIG Reporting Station
Scattered Clouds Scattered Clouds  
Wind Chill: -9°   Ceiling: Unl
Heat Index: -9°   Visibility: 10mi
Dew Point: -12°   Wind: 0mph
Humidity: 81%   Direction: NA
Pressure: 30.32"   Gusts: NA
Location:  41.3342°N, 77.9676°W
Report Text: KFIG 221354Z AUTO 00000KT 10SM SCT050 M09/M12 A3032 RMK AO2 SLP297 T10891117
Loading
Personal Weather Stations






























Interactive Weather Map New forecast layout! Learn more

10-Day Weather Forecast

Advertisements
Track Severe Weather on mobile